Time;durP1;ratioP1;P1;durP2;ratioP2;P2;SDS_P1;SDS_P2;PMS_P1;PMS_P2;Temp;Humidity;BMP_temperature;BMP_pressure;BME280_temperature;BME280_humidity;BME280_pressure;Samples;Min_cycle;Max_cycle;Signal;HPM_P1;HPM_P2
2023/06/09 00:00:36;;;;;;;;;;;;;;;;;;2202234;59;1503;-20
2023/06/09 00:03:07;;;;;;;;;;;;;;;;;;2202298;59;1658;-19
2023/06/09 00:05:39;;;;;;;;;;;;;;;;;;2201789;66;1667;-20
2023/06/09 00:08:13;;;;;;;;;;;;;;;;;;2202029;66;1261;-20
2023/06/09 00:10:44;;;;;;;;;;;;;;;;;;2202380;66;1267;-20
2023/06/09 00:13:15;;;;;;;;;;;;;;;;;;2202316;59;2017;-20
2023/06/09 00:15:46;;;;;;;;;;;;;;;;;;2202527;59;1420;-20
2023/06/09 00:18:16;;;;;;;;;;;;;;;;;;2201223;66;2013;-20
2023/06/09 00:20:49;;;;;;;;;;;;;;;;;;2202400;66;1287;-20
2023/06/09 00:23:19;;;;;;;;;;;;;;;;;;2202621;66;1918;-20
2023/06/09 00:25:49;;;;;;;;;;;;;;;;;;2202118;59;1372;-20
2023/06/09 00:28:20;;;;;;;;;;;;;;;;;;2202516;66;1638;-20
2023/06/09 00:30:50;;;;;;;;;;;;;;;;;;2202194;59;2146;-20
2023/06/09 00:33:21;;;;;;;;;;;;;;;;;;2201630;66;1995;-20
2023/06/09 00:35:54;;;;;;;;;;;;;;;;;;2202529;59;1683;-20
2023/06/09 00:38:24;;;;;;;;;;;;;;;;;;2202906;66;1896;-20
2023/06/09 00:40:54;;;;;;;;;;;;;;;;;;2202091;66;1922;-20
2023/06/09 00:43:25;;;;;;;;;;;;;;;;;;2202529;66;1949;-20
2023/06/09 00:45:55;;;;;;;;;;;;;;;;;;2202043;66;1868;-20
2023/06/09 00:48:26;;;;;;;;;;;;;;;;;;2202559;59;2234;-20
2023/06/09 00:50:57;;;;;;;;;;;;;;;;;;2202128;64;1572;-21
2023/06/09 00:53:28;;;;;;;;;;;;;;;;;;2202959;66;1909;-20
2023/06/09 00:55:59;;;;;;;;;;;;;;;;;;2202274;66;1336;-20
2023/06/09 00:58:29;;;;;;;;;;;;;;;;;;2203660;59;1958;-20
2023/06/09 01:01:00;;;;;;;;;;;;;;;;;;2201934;59;1405;-20
2023/06/09 01:03:32;;;;;;;;;;;;;;;;;;2203121;66;1659;-20
2023/06/09 01:06:13;;;;;;;;;;;;;;;;;;2202259;66;1688;-20
2023/06/09 01:08:50;;;;;;;;;;;;;;;;;;2203070;66;1416;-20
2023/06/09 01:11:25;;;;;;;;;;;;;;;;;;2202428;59;1877;-20
2023/06/09 01:14:02;;;;;;;;;;;;;;;;;;2202072;66;1938;-20
2023/06/09 01:16:36;;;;;;;;;;;;;;;;;;2201546;66;2118;-20
2023/06/09 01:19:11;;;;;;;;;;;;;;;;;;2215772;66;1668;-20
2023/06/09 01:21:43;;;;;;;;;;;;;;;;;;2203164;66;1611;-20
2023/06/09 01:24:16;;;;;;;;;;;;;;;;;;2201977;66;1925;-20
2023/06/09 01:26:50;;;;;;;;;;;;;;;;;;2203113;66;1410;-20
2023/06/09 01:29:21;;;;;;;;;;;;;;;;;;2202514;66;1705;-20
2023/06/09 01:31:52;;;;;;;;;;;;;;;;;;2203833;59;1615;-20
2023/06/09 01:34:23;;;;;;;;;;;;;;;;;;2202000;66;1940;-20
2023/06/09 01:36:53;;;;;;;;;;;;;;;;;;2203153;59;1784;-20
2023/06/09 01:39:24;;;;;;;;;;;;;;;;;;2202515;66;2613;-20
2023/06/09 01:41:54;;;;;;;;;;;;;;;;;;2203295;66;1550;-20
2023/06/09 01:44:24;;;;;;;;;;;;;;;;;;2203036;66;1774;-20
2023/06/09 01:46:55;;;;;;;;;;;;;;;;;;2203207;59;2304;-20
2023/06/09 01:49:37;;;;;;;;;;;;;;;;;;2203077;66;1559;-20
2023/06/09 01:52:18;;;;;;;;;;;;;;;;;;2202746;59;2174;-20
2023/06/09 01:54:53;;;;;;;;;;;;;;;;;;2204000;59;1981;-20
2023/06/09 01:57:39;;;;;;;;;;;;;;;;;;2202055;66;2224;-20
2023/06/09 02:00:11;;;;;;;;;;;;;;;;;;2202122;59;1660;-20
2023/06/09 02:02:42;;;;;;;;;;;;;;;;;;2202914;59;1630;-20
2023/06/09 02:05:13;;;;;;;;;;;;;;;;;;2202132;66;1754;-20
2023/06/09 02:07:44;;;;;;;;;;;;;;;;;;2202584;66;1703;-20
2023/06/09 02:10:15;;;;;;;;;;;;;;;;;;2201911;66;1630;-20
2023/06/09 02:12:45;;;;;;;;;;;;;;;;;;2201882;66;1484;-20
2023/06/09 02:15:15;;;;;;;;;;;;;;;;;;2201992;66;1948;-20
2023/06/09 02:17:46;;;;;;;;;;;;;;;;;;2202627;66;1533;-20
2023/06/09 02:20:16;;;;;;;;;;;;;;;;;;2201618;66;1860;-20
2023/06/09 02:22:46;;;;;;;;;;;;;;;;;;2202476;59;1931;-20
2023/06/09 02:25:17;;;;;;;;;;;;;;;;;;2201235;66;1373;-20
2023/06/09 02:27:47;;;;;;;;;;;;;;;;;;2200995;66;1646;-20
2023/06/09 02:30:17;;;;;;;;;;;;;;;;;;2202472;59;1802;-20
2023/06/09 02:32:50;;;;;;;;;;;;;;;;;;2202713;66;1368;-20
2023/06/09 02:35:21;;;;;;;;;;;;;;;;;;2202232;66;1957;-20
2023/06/09 02:37:52;;;;;;;;;;;;;;;;;;2203038;66;1775;-20
2023/06/09 02:40:23;;;;;;;;;;;;;;;;;;2202654;66;1726;-20
2023/06/09 02:42:53;;;;;;;;;;;;;;;;;;2203864;66;1587;-20
2023/06/09 02:45:24;;;;;;;;;;;;;;;;;;2202179;66;3071;-20
2023/06/09 02:47:54;;;;;;;;;;;;;;;;;;2203911;58;2154;-20
2023/06/09 02:50:24;;;;;;;;;;;;;;;;;;2203346;66;1657;-20
2023/06/09 02:52:54;;;;;;;;;;;;;;;;;;2203468;59;1914;-20
2023/06/09 02:55:26;;;;;;;;;;;;;;;;;;2203222;66;1906;-20
2023/06/09 02:57:56;;;;;;;;;;;;;;;;;;2202769;66;2111;-20
2023/06/09 03:00:26;;;;;;;;;;;;;;;;;;2204015;59;2878;-17
2023/06/09 03:02:57;;;;;;;;;;;;;;;;;;2203564;59;1567;-17
2023/06/09 03:05:27;;;;;;;;;;;;;;;;;;2203324;59;1693;-17
2023/06/09 03:07:57;;;;;;;;;;;;;;;;;;2203376;66;1464;-18
2023/06/09 03:10:28;;;;;;;;;;;;;;;;;;2203226;59;1660;-17
2023/06/09 03:12:58;;;;;;;;;;;;;;;;;;2202847;66;1295;-17
2023/06/09 03:15:28;;;;;;;;;;;;;;;;;;2200302;66;1935;-17
2023/06/09 03:17:59;;;;;;;;;;;;;;;;;;2203835;59;1353;-17
2023/06/09 03:20:29;;;;;;;;;;;;;;;;;;2203298;66;1644;-18
2023/06/09 03:23:00;;;;;;;;;;;;;;;;;;2202926;66;1164;-17
2023/06/09 03:25:30;;;;;;;;;;;;;;;;;;2203086;66;1982;-17
2023/06/09 03:28:01;;;;;;;;;;;;;;;;;;2203577;66;1674;-18
2023/06/09 03:30:31;;;;;;;;;;;;;;;;;;2203372;59;1348;-17
2023/06/09 03:33:05;;;;;;;;;;;;;;;;;;2202923;59;1128;-17
2023/06/09 03:35:36;;;;;;;;;;;;;;;;;;2203531;59;1967;-17
2023/06/09 03:38:06;;;;;;;;;;;;;;;;;;2203274;66;1285;-17
2023/06/09 03:40:39;;;;;;;;;;;;;;;;;;2203164;66;1642;-17
2023/06/09 03:43:11;;;;;;;;;;;;;;;;;;2203628;66;2067;-17
2023/06/09 03:45:41;;;;;;;;;;;;;;;;;;2202575;66;1303;-25
2023/06/09 03:48:11;;;;;;;;;;;;;;;;;;2202768;59;2320;-17
2023/06/09 03:50:41;;;;;;;;;;;;;;;;;;2203543;66;2120;-17
2023/06/09 03:53:12;;;;;;;;;;;;;;;;;;2203338;59;1936;-17
2023/06/09 03:55:42;;;;;;;;;;;;;;;;;;2203164;66;1240;-17
2023/06/09 03:58:13;;;;;;;;;;;;;;;;;;2203229;59;2097;-17
2023/06/09 04:00:44;;;;;;;;;;;;;;;;;;2203073;59;1470;-17
2023/06/09 04:03:14;;;;;;;;;;;;;;;;;;2203203;59;2327;-17
2023/06/09 04:05:45;;;;;;;;;;;;;;;;;;2203312;66;1145;-17
2023/06/09 04:08:15;;;;;;;;;;;;;;;;;;2202603;59;1298;-17
2023/06/09 04:10:45;;;;;;;;;;;;;;;;;;2203048;67;1288;-17
2023/06/09 04:13:15;;;;;;;;;;;;;;;;;;2203708;66;1944;-17
2023/06/09 04:15:46;;;;;;;;;;;;;;;;;;2203645;66;1165;-17
2023/06/09 04:18:16;;;;;;;;;;;;;;;;;;2202536;66;1220;-18
2023/06/09 04:20:46;;;;;;;;;;;;;;;;;;2203321;66;1553;-18
2023/06/09 04:23:16;;;;;;;;;;;;;;;;;;2202592;66;1200;-18
2023/06/09 04:25:47;;;;;;;;;;;;;;;;;;2203274;66;1461;-17
2023/06/09 04:28:17;;;;;;;;;;;;;;;;;;2203704;66;1210;-17
2023/06/09 04:30:49;;;;;;;;;;;;;;;;;;2203832;59;1156;-17
2023/06/09 04:33:19;;;;;;;;;;;;;;;;;;2203887;66;1938;-17
2023/06/09 04:35:53;;;;;;;;;;;;;;;;;;2203429;59;1275;-17
2023/06/09 04:38:25;;;;;;;;;;;;;;;;;;2202271;66;1298;-17
2023/06/09 04:40:58;;;;;;;;;;;;;;;;;;2202790;66;1702;-17
2023/06/09 04:43:33;;;;;;;;;;;;;;;;;;2202043;66;1239;-17
2023/06/09 04:46:07;;;;;;;;;;;;;;;;;;2202571;66;1320;-17
2023/06/09 04:48:37;;;;;;;;;;;;;;;;;;2202292;59;2198;-17
2023/06/09 04:51:07;;;;;;;;;;;;;;;;;;2202734;59;1539;-17
2023/06/09 04:53:38;;;;;;;;;;;;;;;;;;2202637;66;1952;-18
2023/06/09 04:56:08;;;;;;;;;;;;;;;;;;2202163;66;1523;-17
2023/06/09 04:58:40;;;;;;;;;;;;;;;;;;2202109;59;2048;-18
2023/06/09 05:01:11;;;;;;;;;;;;;;;;;;2203313;59;1401;-18
2023/06/09 05:03:41;;;;;;;;;;;;;;;;;;2202362;66;1602;-17
2023/06/09 05:06:11;;;;;;;;;;;;;;;;;;2202270;66;1153;-17
2023/06/09 05:08:42;;;;;;;;;;;;;;;;;;2202649;59;1358;-18
2023/06/09 05:11:12;;;;;;;;;;;;;;;;;;2202640;66;1228;-17
2023/06/09 05:13:43;;;;;;;;;;;;;;;;;;2203605;66;1944;-17
2023/06/09 05:16:15;;;;;;;;;;;;;;;;;;2202516;66;1134;-18
2023/06/09 05:18:45;;;;;;;;;;;;;;;;;;2203130;66;1981;-18
2023/06/09 05:21:15;;;;;;;;;;;;;;;;;;2202848;66;1781;-18
2023/06/09 05:23:46;;;;;;;;;;;;;;;;;;2203208;66;1527;-18
2023/06/09 05:26:17;;;;;;;;;;;;;;;;;;2202918;66;1203;-17
2023/06/09 05:28:47;;;;;;;;;;;;;;;;;;2202619;66;1539;-18
2023/06/09 05:31:17;;;;;;;;;;;;;;;;;;2201954;59;2425;-18
2023/06/09 05:33:47;;;;;;;;;;;;;;;;;;2202956;66;1981;-18
2023/06/09 05:36:21;;;;;;;;;;;;;;;;;;2201997;66;1331;-18
2023/06/09 05:38:51;;;;;;;;;;;;;;;;;;2202217;66;2074;-17
2023/06/09 05:41:21;;;;;;;;;;;;;;;;;;2202105;66;1245;-18
2023/06/09 05:43:52;;;;;;;;;;;;;;;;;;2202288;66;1368;-18
2023/06/09 05:46:23;;;;;;;;;;;;;;;;;;2201899;59;2121;-18
2023/06/09 05:48:53;;;;;;;;;;;;;;;;;;2203336;66;1133;-17
2023/06/09 05:51:23;;;;;;;;;;;;;;;;;;2201905;59;1395;-18
2023/06/09 05:53:54;;;;;;;;;;;;;;;;;;2202335;66;1941;-18
2023/06/09 05:56:25;;;;;;;;;;;;;;;;;;2202728;66;1149;-18
2023/06/09 05:59:03;;;;;;;;;;;;;;;;;;2202425;59;2177;-18
2023/06/09 06:01:34;;;;;;;;;;;;;;;;;;2202398;59;1274;-18
2023/06/09 06:04:04;;;;;;;;;;;;;;;;;;2201934;66;1158;-18
2023/06/09 06:06:37;;;;;;;;;;;;;;;;;;2201117;66;1307;-18
2023/06/09 06:09:07;;;;;;;;;;;;;;;;;;2198156;67;1314;-18
2023/06/09 06:11:37;;;;;;;;;;;;;;;;;;2201955;66;1092;-18
2023/06/09 06:14:07;;;;;;;;;;;;;;;;;;2202117;66;1946;-18
2023/06/09 06:16:38;;;;;;;;;;;;;;;;;;2202486;66;1668;-18
2023/06/09 06:19:11;;;;;;;;;;;;;;;;;;2202653;66;1926;-18
2023/06/09 06:21:42;;;;;;;;;;;;;;;;;;2202388;66;1541;-18
2023/06/09 06:24:12;;;;;;;;;;;;;;;;;;2202693;66;1689;-18
2023/06/09 06:26:42;;;;;;;;;;;;;;;;;;2202449;66;1468;-18
2023/06/09 06:29:13;;;;;;;;;;;;;;;;;;2202018;66;1543;-18
2023/06/09 06:31:43;;;;;;;;;;;;;;;;;;2201473;59;1660;-18
2023/06/09 06:34:14;;;;;;;;;;;;;;;;;;2201843;66;2248;-18
2023/06/09 06:36:44;;;;;;;;;;;;;;;;;;2202149;59;1680;-18
2023/06/09 06:39:14;;;;;;;;;;;;;;;;;;2202526;66;1211;-18
2023/06/09 06:41:45;;;;;;;;;;;;;;;;;;2202069;66;1591;-18
2023/06/09 06:44:15;;;;;;;;;;;;;;;;;;2202685;66;1206;-18
2023/06/09 06:46:45;;;;;;;;;;;;;;;;;;2202414;59;1994;-18
2023/06/09 06:49:16;;;;;;;;;;;;;;;;;;2202754;66;1213;-18
2023/06/09 06:51:46;;;;;;;;;;;;;;;;;;2202192;59;1500;-18
2023/06/09 06:54:16;;;;;;;;;;;;;;;;;;2202336;66;1936;-18
2023/06/09 06:56:47;;;;;;;;;;;;;;;;;;2202513;66;1459;-20
2023/06/09 06:59:17;;;;;;;;;;;;;;;;;;2202338;59;2209;-20
2023/06/09 07:01:48;;;;;;;;;;;;;;;;;;2202298;59;2030;-20
2023/06/09 07:04:18;;;;;;;;;;;;;;;;;;2201327;59;2299;-20
2023/06/09 07:06:48;;;;;;;;;;;;;;;;;;2201901;66;1727;-20
2023/06/09 07:09:19;;;;;;;;;;;;;;;;;;2201745;59;1390;-20
2023/06/09 07:11:49;;;;;;;;;;;;;;;;;;2201625;59;1761;-20
2023/06/09 07:14:19;;;;;;;;;;;;;;;;;;2201447;66;1923;-20
2023/06/09 07:16:50;;;;;;;;;;;;;;;;;;2201479;59;2082;-20
2023/06/09 07:19:20;;;;;;;;;;;;;;;;;;2214183;58;2078;-20
2023/06/09 07:21:50;;;;;;;;;;;;;;;;;;2202673;66;1230;-20
2023/06/09 07:24:20;;;;;;;;;;;;;;;;;;2202323;66;1167;-20
2023/06/09 07:26:51;;;;;;;;;;;;;;;;;;2202622;66;1267;-20
2023/06/09 07:29:21;;;;;;;;;;;;;;;;;;2201621;59;2287;-20
2023/06/09 07:31:52;;;;;;;;;;;;;;;;;;2201673;59;1584;-20
2023/06/09 07:34:27;;;;;;;;;;;;;;;;;;2201108;59;1995;-20
2023/06/09 07:37:00;;;;;;;;;;;;;;;;;;2199954;59;2277;-21
2023/06/09 07:39:31;;;;;;;;;;;;;;;;;;2201542;66;1602;-21
2023/06/09 07:42:01;;;;;;;;;;;;;;;;;;2201295;66;1383;-21
2023/06/09 07:44:31;;;;;;;;;;;;;;;;;;2200754;66;2481;-20
2023/06/09 07:47:02;;;;;;;;;;;;;;;;;;2190839;59;2191;-21
2023/06/09 07:49:32;;;;;;;;;;;;;;;;;;2198940;59;1572;-21
2023/06/09 07:52:04;;;;;;;;;;;;;;;;;;2200561;59;1437;-21
2023/06/09 07:54:34;;;;;;;;;;;;;;;;;;2198464;59;1998;-21
2023/06/09 07:57:04;;;;;;;;;;;;;;;;;;2199767;66;1701;-21
2023/06/09 07:59:35;;;;;;;;;;;;;;;;;;2200859;59;1995;-21
2023/06/09 08:02:05;;;;;;;;;;;;;;;;;;2196551;59;1984;-21
2023/06/09 08:04:35;;;;;;;;;;;;;;;;;;2197426;66;1762;-21
2023/06/09 08:07:06;;;;;;;;;;;;;;;;;;2200770;66;1134;-21
2023/06/09 08:09:36;;;;;;;;;;;;;;;;;;2199470;59;1599;-21
2023/06/09 08:12:07;;;;;;;;;;;;;;;;;;2198937;64;3591;-21
2023/06/09 08:14:37;;;;;;;;;;;;;;;;;;2198382;59;2913;-21
2023/06/09 08:17:07;;;;;;;;;;;;;;;;;;2199436;59;1830;-21
2023/06/09 08:19:37;;;;;;;;;;;;;;;;;;2199357;59;1885;-21
2023/06/09 08:22:08;;;;;;;;;;;;;;;;;;2200391;66;1961;-21
2023/06/09 08:24:38;;;;;;;;;;;;;;;;;;2199654;66;1999;-21
2023/06/09 08:27:08;;;;;;;;;;;;;;;;;;2199252;59;1816;-21
2023/06/09 08:29:38;;;;;;;;;;;;;;;;;;2199401;59;2230;-21
2023/06/09 08:32:08;;;;;;;;;;;;;;;;;;2200658;59;1146;-21
2023/06/09 08:34:39;;;;;;;;;;;;;;;;;;2198781;66;2423;-21
2023/06/09 08:37:09;;;;;;;;;;;;;;;;;;2201278;59;1482;-21
2023/06/09 08:39:42;;;;;;;;;;;;;;;;;;2200657;59;1911;-21
2023/06/09 08:42:20;;;;;;;;;;;;;;;;;;2200012;66;1420;-21
2023/06/09 08:44:53;;;;;;;;;;;;;;;;;;2199469;59;2081;-21
2023/06/09 08:47:24;;;;;;;;;;;;;;;;;;2197950;59;2555;-21
2023/06/09 08:49:57;;;;;;;;;;;;;;;;;;2198361;59;2516;-21
2023/06/09 08:52:28;;;;;;;;;;;;;;;;;;2197518;59;2591;-22
2023/06/09 08:54:59;;;;;;;;;;;;;;;;;;2199235;59;2980;-21
2023/06/09 08:57:30;;;;;;;;;;;;;;;;;;2200172;59;2138;-21
2023/06/09 09:00:03;;;;;;;;;;;;;;;;;;2200885;59;1345;-21
2023/06/09 09:02:33;;;;;;;;;;;;;;;;;;2199559;59;2176;-21
2023/06/09 09:05:04;;;;;;;;;;;;;;;;;;2197899;66;2441;-21
2023/06/09 09:07:38;;;;;;;;;;;;;;;;;;2194723;58;2550;-21
2023/06/09 09:10:10;;;;;;;;;;;;;;;;;;2197260;59;2337;-21
2023/06/09 09:12:46;;;;;;;;;;;;;;;;;;2197891;64;2174;-21
2023/06/09 09:15:17;;;;;;;;;;;;;;;;;;2197998;66;2636;-21
2023/06/09 09:17:47;;;;;;;;;;;;;;;;;;2197677;59;1758;-21
2023/06/09 09:20:18;;;;;;;;;;;;;;;;;;2210961;58;1930;-21
2023/06/09 09:22:49;;;;;;;;;;;;;;;;;;2198797;59;1868;-21
2023/06/09 09:25:20;;;;;;;;;;;;;;;;;;2198253;59;2146;-21
2023/06/09 09:27:57;;;;;;;;;;;;;;;;;;2199856;59;2566;-21
2023/06/09 09:30:54;;;;;;;;;;;;;;;;;;2198934;59;2151;-21
2023/06/09 09:33:26;;;;;;;;;;;;;;;;;;2198414;59;2298;-21
2023/06/09 09:35:57;;;;;;;;;;;;;;;;;;2198460;59;2393;-21
2023/06/09 09:38:28;;;;;;;;;;;;;;;;;;2199304;59;1814;-21
2023/06/09 09:41:00;;;;;;;;;;;;;;;;;;2197268;59;2884;-21
2023/06/09 09:43:30;;;;;;;;;;;;;;;;;;2198927;59;2479;-21
2023/06/09 09:46:02;;;;;;;;;;;;;;;;;;2199403;59;1893;-21
2023/06/09 09:48:33;;;;;;;;;;;;;;;;;;2198109;59;2368;-21
2023/06/09 09:51:03;;;;;;;;;;;;;;;;;;2198257;59;2485;-21
2023/06/09 09:53:34;;;;;;;;;;;;;;;;;;2198681;59;2579;-22
2023/06/09 09:56:04;;;;;;;;;;;;;;;;;;2196142;59;2345;-21
2023/06/09 09:58:35;;;;;;;;;;;;;;;;;;2199360;59;2602;-21
2023/06/09 10:01:07;;;;;;;;;;;;;;;;;;2199305;59;1928;-21
2023/06/09 10:03:41;;;;;;;;;;;;;;;;;;2196755;59;2220;-21
2023/06/09 10:06:14;;;;;;;;;;;;;;;;;;2199095;59;1891;-21
2023/06/09 10:08:44;;;;;;;;;;;;;;;;;;2199056;59;1927;-21
2023/06/09 10:11:15;;;;;;;;;;;;;;;;;;2200490;66;1653;-21
2023/06/09 10:13:46;;;;;;;;;;;;;;;;;;2198990;59;2386;-21
2023/06/09 10:16:17;;;;;;;;;;;;;;;;;;2198868;59;2288;-21
2023/06/09 10:18:48;;;;;;;;;;;;;;;;;;2199837;66;1804;-21
2023/06/09 10:21:19;;;;;;;;;;;;;;;;;;2199414;59;2294;-21
2023/06/09 10:23:51;;;;;;;;;;;;;;;;;;2200182;59;2226;-21
2023/06/09 10:26:22;;;;;;;;;;;;;;;;;;2199867;66;1358;-21
2023/06/09 10:28:52;;;;;;;;;;;;;;;;;;2200214;66;1289;-21
2023/06/09 10:31:24;;;;;;;;;;;;;;;;;;2199934;59;1437;-21
2023/06/09 10:33:55;;;;;;;;;;;;;;;;;;2200094;66;2295;-21
2023/06/09 10:36:33;;;;;;;;;;;;;;;;;;2199758;59;1779;-21
2023/06/09 10:39:17;;;;;;;;;;;;;;;;;;2199864;66;1642;-21
2023/06/09 10:42:08;;;;;;;;;;;;;;;;;;2200406;66;1507;-21
2023/06/09 10:44:38;;;;;;;;;;;;;;;;;;2200655;66;1345;-21
2023/06/09 10:47:09;;;;;;;;;;;;;;;;;;2199539;59;2142;-22
2023/06/09 10:49:42;;;;;;;;;;;;;;;;;;2199609;59;1748;-21
2023/06/09 10:52:32;;;;;;;;;;;;;;;;;;2198225;59;1870;-21
2023/06/09 10:55:12;;;;;;;;;;;;;;;;;;2199519;59;1972;-21
2023/06/09 10:57:43;;;;;;;;;;;;;;;;;;2200457;60;1945;-21
2023/06/09 11:00:15;;;;;;;;;;;;;;;;;;2199363;59;1521;-21
2023/06/09 11:02:46;;;;;;;;;;;;;;;;;;2199199;59;1373;-21
2023/06/09 11:05:18;;;;;;;;;;;;;;;;;;2197280;66;1567;-21
2023/06/09 11:08:02;;;;;;;;;;;;;;;;;;2200815;66;1259;-21
2023/06/09 11:10:32;;;;;;;;;;;;;;;;;;2199819;59;1992;-21
2023/06/09 11:13:22;;;;;;;;;;;;;;;;;;2200328;59;1951;-21
2023/06/09 11:16:03;;;;;;;;;;;;;;;;;;2197992;59;2464;-21
2023/06/09 11:18:33;;;;;;;;;;;;;;;;;;2199884;66;1681;-21
2023/06/09 11:21:10;;;;;;;;;;;;;;;;;;2199104;66;1846;-21
2023/06/09 11:23:57;;;;;;;;;;;;;;;;;;2199821;66;1956;-21
2023/06/09 11:26:28;;;;;;;;;;;;;;;;;;2199757;59;2398;-22
2023/06/09 11:28:59;;;;;;;;;;;;;;;;;;2200273;59;2442;-22
2023/06/09 11:31:45;;;;;;;;;;;;;;;;;;2200531;59;1475;-22
2023/06/09 11:34:35;;;;;;;;;;;;;;;;;;2200210;66;1999;-22
2023/06/09 11:37:05;;;;;;;;;;;;;;;;;;2200884;59;1975;-21
2023/06/09 11:39:36;;;;;;;;;;;;;;;;;;2200478;66;1228;-22
2023/06/09 11:42:07;;;;;;;;;;;;;;;;;;2200076;66;1126;-22
2023/06/09 11:44:37;;;;;;;;;;;;;;;;;;2200159;66;1865;-22
2023/06/09 11:47:23;;;;;;;;;;;;;;;;;;2200118;59;2161;-21
2023/06/09 11:50:01;;;;;;;;;;;;;;;;;;2200395;59;1620;-21
2023/06/09 11:52:33;;;;;;;;;;;;;;;;;;2199810;66;2002;-21
2023/06/09 11:55:04;;;;;;;;;;;;;;;;;;2201003;66;1987;-21
2023/06/09 11:57:38;;;;;;;;;;;;;;;;;;2200052;59;2426;-21
2023/06/09 12:00:12;;;;;;;;;;;;;;;;;;2200722;59;1380;-21
2023/06/09 12:02:42;;;;;;;;;;;;;;;;;;2201037;59;1409;-21
2023/06/09 12:05:13;;;;;;;;;;;;;;;;;;2200149;66;1204;-21
2023/06/09 12:07:44;;;;;;;;;;;;;;;;;;2200452;66;1518;-21
2023/06/09 12:10:19;;;;;;;;;;;;;;;;;;2200252;66;1519;-21
2023/06/09 12:12:51;;;;;;;;;;;;;;;;;;2200206;66;1392;-21
2023/06/09 12:15:23;;;;;;;;;;;;;;;;;;2200089;59;2300;-21
2023/06/09 12:17:54;;;;;;;;;;;;;;;;;;2199533;59;2905;-21
2023/06/09 12:20:36;;;;;;;;;;;;;;;;;;2200777;66;1660;-21
2023/06/09 12:23:12;;;;;;;;;;;;;;;;;;2200101;66;1923;-21
2023/06/09 12:25:43;;;;;;;;;;;;;;;;;;2200273;66;2225;-21
2023/06/09 12:28:27;;;;;;;;;;;;;;;;;;2200155;66;2153;-21
2023/06/09 12:31:08;;;;;;;;;;;;;;;;;;2196983;59;1705;-21
2023/06/09 12:33:45;;;;;;;;;;;;;;;;;;2200150;66;1938;-21
2023/06/09 12:36:15;;;;;;;;;;;;;;;;;;2198875;59;2004;-21
2023/06/09 12:38:45;;;;;;;;;;;;;;;;;;2200267;66;2042;-21
2023/06/09 12:41:16;;;;;;;;;;;;;;;;;;2199831;66;1524;-21
2023/06/09 12:43:49;;;;;;;;;;;;;;;;;;2200531;66;1703;-21
2023/06/09 12:46:20;;;;;;;;;;;;;;;;;;2200120;66;1234;-21
2023/06/09 12:49:03;;;;;;;;;;;;;;;;;;2201042;59;2528;-21
2023/06/09 12:51:36;;;;;;;;;;;;;;;;;;2200670;59;1959;-21
2023/06/09 12:54:07;;;;;;;;;;;;;;;;;;2200384;60;1969;-21
2023/06/09 12:56:37;;;;;;;;;;;;;;;;;;2201200;66;1334;-21
2023/06/09 12:59:08;;;;;;;;;;;;;;;;;;2200667;59;2006;-21
2023/06/09 13:01:39;;;;;;;;;;;;;;;;;;2200258;59;1699;-21
2023/06/09 13:04:09;;;;;;;;;;;;;;;;;;2199576;59;2109;-21
2023/06/09 13:06:43;;;;;;;;;;;;;;;;;;2200100;59;1471;-21
2023/06/09 13:09:13;;;;;;;;;;;;;;;;;;2200425;59;1326;-21
2023/06/09 13:11:43;;;;;;;;;;;;;;;;;;2200975;66;1293;-21
2023/06/09 13:14:14;;;;;;;;;;;;;;;;;;2200286;66;2008;-21
2023/06/09 13:16:47;;;;;;;;;;;;;;;;;;2200616;66;2321;-19
2023/06/09 13:19:17;;;;;;;;;;;;;;;;;;2200098;59;2584;-19
2023/06/09 13:21:47;;;;;;;;;;;;;;;;;;2199918;59;1910;-19
2023/06/09 13:24:18;;;;;;;;;;;;;;;;;;2200208;66;1197;-19
2023/06/09 13:26:49;;;;;;;;;;;;;;;;;;2200317;59;2148;-19
2023/06/09 13:29:19;;;;;;;;;;;;;;;;;;2200640;66;1826;-19
2023/06/09 13:31:49;;;;;;;;;;;;;;;;;;2199570;63;1495;-19
2023/06/09 13:34:19;;;;;;;;;;;;;;;;;;2199839;66;1952;-19
2023/06/09 13:36:52;;;;;;;;;;;;;;;;;;2199405;59;2520;-19
2023/06/09 13:39:23;;;;;;;;;;;;;;;;;;2199753;59;2396;-19
2023/06/09 13:41:53;;;;;;;;;;;;;;;;;;2199681;66;1762;-19
2023/06/09 13:44:23;;;;;;;;;;;;;;;;;;2199538;66;1471;-19
2023/06/09 13:46:53;;;;;;;;;;;;;;;;;;2200224;59;2859;-19
2023/06/09 13:49:23;;;;;;;;;;;;;;;;;;2200008;59;1915;-19
2023/06/09 13:51:54;;;;;;;;;;;;;;;;;;2199873;59;1596;-19
2023/06/09 13:54:24;;;;;;;;;;;;;;;;;;2200566;66;2010;-19
2023/06/09 13:56:54;;;;;;;;;;;;;;;;;;2198925;58;1864;-19
2023/06/09 13:59:25;;;;;;;;;;;;;;;;;;2199882;59;2025;-19
2023/06/09 14:01:55;;;;;;;;;;;;;;;;;;2199602;59;1886;-19
2023/06/09 14:04:25;;;;;;;;;;;;;;;;;;2200714;66;1680;-19
2023/06/09 14:06:55;;;;;;;;;;;;;;;;;;2200198;66;1278;-19
2023/06/09 14:09:28;;;;;;;;;;;;;;;;;;2200092;66;1775;-19
2023/06/09 14:11:58;;;;;;;;;;;;;;;;;;2200227;66;1376;-19
2023/06/09 14:14:29;;;;;;;;;;;;;;;;;;2199910;59;1995;-19
2023/06/09 14:16:59;;;;;;;;;;;;;;;;;;2199861;66;2326;-19
2023/06/09 14:19:29;;;;;;;;;;;;;;;;;;2198798;60;2229;-19
2023/06/09 14:22:04;;;;;;;;;;;;;;;;;;2200210;66;1788;-19
2023/06/09 14:24:35;;;;;;;;;;;;;;;;;;2200058;66;1742;-19
2023/06/09 14:27:05;;;;;;;;;;;;;;;;;;2201166;59;2084;-19
2023/06/09 14:29:36;;;;;;;;;;;;;;;;;;2200143;66;1896;-19
2023/06/09 14:32:07;;;;;;;;;;;;;;;;;;2199704;59;2036;-19
2023/06/09 14:34:37;;;;;;;;;;;;;;;;;;2199747;66;2112;-19
2023/06/09 14:37:07;;;;;;;;;;;;;;;;;;2199529;59;2315;-19
2023/06/09 14:39:37;;;;;;;;;;;;;;;;;;2199544;66;2216;-19
2023/06/09 14:42:08;;;;;;;;;;;;;;;;;;2199821;59;1951;-19
2023/06/09 14:44:38;;;;;;;;;;;;;;;;;;2199721;66;1753;-19
2023/06/09 14:47:08;;;;;;;;;;;;;;;;;;2200149;59;2111;-19
2023/06/09 14:49:38;;;;;;;;;;;;;;;;;;2198878;59;2212;-19
2023/06/09 14:52:11;;;;;;;;;;;;;;;;;;2200043;59;1839;-19
2023/06/09 14:54:42;;;;;;;;;;;;;;;;;;2200592;59;2082;-19
2023/06/09 14:57:12;;;;;;;;;;;;;;;;;;2201223;66;3471;-19
2023/06/09 14:59:42;;;;;;;;;;;;;;;;;;2200835;59;2275;-21
2023/06/09 15:02:13;;;;;;;;;;;;;;;;;;2199934;59;1794;-21
2023/06/09 15:04:43;;;;;;;;;;;;;;;;;;2199335;66;2209;-21
2023/06/09 15:07:15;;;;;;;;;;;;;;;;;;2200198;66;1765;-21
2023/06/09 15:09:46;;;;;;;;;;;;;;;;;;2199597;59;1756;-21
2023/06/09 15:12:17;;;;;;;;;;;;;;;;;;2197080;66;1631;-24
2023/06/09 15:14:47;;;;;;;;;;;;;;;;;;2199477;66;1928;-21
2023/06/09 15:17:17;;;;;;;;;;;;;;;;;;2199077;66;1146;-21
2023/06/09 15:19:47;;;;;;;;;;;;;;;;;;2199800;66;1260;-21
2023/06/09 15:22:18;;;;;;;;;;;;;;;;;;2200486;66;1194;-21
2023/06/09 15:24:51;;;;;;;;;;;;;;;;;;2199406;66;1111;-21
2023/06/09 15:27:21;;;;;;;;;;;;;;;;;;2199240;59;2321;-21
2023/06/09 15:29:54;;;;;;;;;;;;;;;;;;2199379;66;1348;-21
2023/06/09 15:32:25;;;;;;;;;;;;;;;;;;2199576;59;1745;-21
2023/06/09 15:34:55;;;;;;;;;;;;;;;;;;2199579;66;1935;-21
2023/06/09 15:37:25;;;;;;;;;;;;;;;;;;2197946;59;2499;-21
2023/06/09 15:39:55;;;;;;;;;;;;;;;;;;2197813;59;2308;-21
2023/06/09 15:42:26;;;;;;;;;;;;;;;;;;2200635;59;1294;-21
2023/06/09 15:44:56;;;;;;;;;;;;;;;;;;2201115;66;1250;-21
2023/06/09 15:47:28;;;;;;;;;;;;;;;;;;2201081;59;2022;-21
2023/06/09 15:49:59;;;;;;;;;;;;;;;;;;2199960;59;1560;-21
2023/06/09 15:52:29;;;;;;;;;;;;;;;;;;2199879;59;1245;-21
2023/06/09 15:54:59;;;;;;;;;;;;;;;;;;2198878;59;1929;-21
2023/06/09 15:57:30;;;;;;;;;;;;;;;;;;2200606;59;2073;-21
2023/06/09 16:00:00;;;;;;;;;;;;;;;;;;2200332;66;1308;-21
2023/06/09 16:02:34;;;;;;;;;;;;;;;;;;2200121;59;1961;-21
2023/06/09 16:05:04;;;;;;;;;;;;;;;;;;2199991;66;1302;-21
2023/06/09 16:07:34;;;;;;;;;;;;;;;;;;2199129;59;2237;-21
2023/06/09 16:10:05;;;;;;;;;;;;;;;;;;2200013;59;2045;-21
2023/06/09 16:12:35;;;;;;;;;;;;;;;;;;2200197;59;1955;-21
2023/06/09 16:15:05;;;;;;;;;;;;;;;;;;2200337;66;1987;-21
2023/06/09 16:17:35;;;;;;;;;;;;;;;;;;2200636;66;1625;-21
2023/06/09 16:20:06;;;;;;;;;;;;;;;;;;2199917;66;1285;-21
2023/06/09 16:22:36;;;;;;;;;;;;;;;;;;2198613;59;2314;-21
2023/06/09 16:25:07;;;;;;;;;;;;;;;;;;2199423;59;1188;-21
2023/06/09 16:27:37;;;;;;;;;;;;;;;;;;2200170;66;1123;-21
2023/06/09 16:30:07;;;;;;;;;;;;;;;;;;2199487;59;2216;-21
2023/06/09 16:32:38;;;;;;;;;;;;;;;;;;2197687;59;2152;-21
2023/06/09 16:35:08;;;;;;;;;;;;;;;;;;2199748;59;2008;-21
2023/06/09 16:37:39;;;;;;;;;;;;;;;;;;2200355;66;1692;-21
2023/06/09 16:40:09;;;;;;;;;;;;;;;;;;2199936;59;1691;-21
2023/06/09 16:42:39;;;;;;;;;;;;;;;;;;2199302;66;2596;-21
2023/06/09 16:45:09;;;;;;;;;;;;;;;;;;2200331;59;1954;-21
2023/06/09 16:47:40;;;;;;;;;;;;;;;;;;2199872;59;2215;-21
2023/06/09 16:50:10;;;;;;;;;;;;;;;;;;2201561;59;1756;-21
2023/06/09 16:52:40;;;;;;;;;;;;;;;;;;2201000;59;1999;-20
2023/06/09 16:55:11;;;;;;;;;;;;;;;;;;2200629;59;1939;-21
2023/06/09 16:57:41;;;;;;;;;;;;;;;;;;2200853;66;2111;-21
2023/06/09 17:00:11;;;;;;;;;;;;;;;;;;2200442;59;1989;-21
2023/06/09 17:02:42;;;;;;;;;;;;;;;;;;2201015;59;2248;-21
2023/06/09 17:05:12;;;;;;;;;;;;;;;;;;2199878;66;1793;-21
2023/06/09 17:07:42;;;;;;;;;;;;;;;;;;2200373;66;1743;-21
2023/06/09 17:10:14;;;;;;;;;;;;;;;;;;2199369;59;2087;-21
2023/06/09 17:12:44;;;;;;;;;;;;;;;;;;2200277;66;2055;-21
2023/06/09 17:15:14;;;;;;;;;;;;;;;;;;2199953;59;2528;-21
2023/06/09 17:17:44;;;;;;;;;;;;;;;;;;2201521;66;2011;-21
2023/06/09 17:20:15;;;;;;;;;;;;;;;;;;2198644;59;2593;-21
2023/06/09 17:22:45;;;;;;;;;;;;;;;;;;2203618;59;2646;-21
2023/06/09 17:25:15;;;;;;;;;;;;;;;;;;2201048;66;2105;-21
2023/06/09 17:27:47;;;;;;;;;;;;;;;;;;2201399;59;2100;-21
2023/06/09 17:30:17;;;;;;;;;;;;;;;;;;2199968;59;2252;-21
2023/06/09 17:32:47;;;;;;;;;;;;;;;;;;2201111;66;1744;-21